Beauly, United Kingdom
Current Conditions -  °F | °C
As of 6:20 PM on Thursday 29 Jan 2015 (Local Time) from EGPE Reporting Station
Few Clouds Few Clouds  
Wind Chill: 24°   Ceiling: Unl
Heat Index: 32°   Visibility: 6mi
Dew Point: 28°   Wind: 10mph
Humidity: 87%   Direction: 240°WSW
Pressure: 28.7"   Gusts: NA
Location:  57.48°N, 4.46°W
Report Text: EGPE 291820Z 24009KT 9999 FEW015 FEW020CB M00/M02 Q0972
Loading
Personal Weather Stations






























Interactive Weather Map New forecast layout! Learn more

10-Day Weather Forecast

Advertisements
Track Severe Weather on mobile